createdAt,value
2022-08-17T00:01:51.553Z,75.60
2022-08-17T00:04:20.474Z,71.63
2022-08-17T00:06:49.096Z,72.13
2022-08-17T00:09:18.728Z,75.47
2022-08-17T00:12:41.838Z,70.10
2022-08-17T00:14:36.213Z,70.15
2022-08-17T00:17:04.762Z,67.05
2022-08-17T00:19:32.885Z,71.32
2022-08-17T00:22:34.815Z,71.10
2022-08-17T00:24:50.246Z,71.43
2022-08-17T00:27:18.121Z,68.20
2022-08-17T00:29:45.863Z,61.53
2022-08-17T00:33:13.958Z,60.88
2022-08-17T00:35:06.210Z,65.68
2022-08-17T00:37:33.137Z,62.97
2022-08-17T00:40:00.153Z,62.58
2022-08-17T00:42:30.912Z,57.90
2022-08-17T00:44:58.632Z,58.38
2022-08-17T00:47:25.883Z,54.00
2022-08-17T00:49:53.178Z,52.30
2022-08-17T00:52:24.918Z,59.50
2022-08-17T00:54:54.639Z,55.08
2022-08-17T00:57:29.999Z,50.38
2022-08-17T01:00:03.800Z,53.35
2022-08-17T01:02:51.754Z,48.60
2022-08-17T01:05:21.427Z,48.20
2022-08-17T01:07:50.919Z,46.75
2022-08-17T01:11:00.532Z,43.55
2022-08-17T01:13:13.396Z,44.78
2022-08-17T01:15:46.416Z,42.85
2022-08-17T01:18:14.458Z,45.25
2022-08-17T01:20:49.322Z,41.55
2022-08-17T01:23:20.981Z,44.67
2022-08-17T01:26:01.431Z,48.38
2022-08-17T01:28:53.073Z,43.95
2022-08-17T01:31:19.652Z,43.30
2022-08-17T01:33:46.626Z,43.45
2022-08-17T01:36:13.574Z,42.88
2022-08-17T01:38:40.606Z,40.47
2022-08-17T01:41:12.369Z,42.75
2022-08-17T01:43:53.944Z,43.90
2022-08-17T01:46:24.859Z,45.10
2022-08-17T01:48:51.826Z,48.92
2022-08-17T01:51:20.289Z,44.03
2022-08-17T01:53:53.988Z,46.05
2022-08-17T01:56:23.718Z,42.50
2022-08-17T01:58:51.823Z,48.65
2022-08-17T02:01:21.919Z,48.95
2022-08-17T02:03:53.337Z,45.25
2022-08-17T02:06:28.483Z,50.20
2022-08-17T02:09:02.850Z,55.42
2022-08-17T02:11:33.247Z,45.75
2022-08-17T02:14:03.190Z,46.45
2022-08-17T02:16:36.879Z,52.00
2022-08-17T02:19:11.254Z,56.42
2022-08-17T02:21:39.357Z,53.65
2022-08-17T02:24:10.886Z,46.83
2022-08-17T02:26:40.919Z,51.00
2022-08-17T02:29:07.960Z,50.67
2022-08-17T02:31:35.545Z,52.70
2022-08-17T02:34:04.778Z,50.00
2022-08-17T02:36:35.336Z,44.72
2022-08-17T02:39:08.555Z,48.22
2022-08-17T02:41:36.547Z,52.55
2022-08-17T02:44:04.326Z,52.72
2022-08-17T02:46:32.229Z,51.95
2022-08-17T02:48:59.561Z,50.72
2022-08-17T02:51:27.260Z,59.03
2022-08-17T02:54:02.061Z,63.13
2022-08-17T02:56:41.090Z,54.85
2022-08-17T02:59:08.092Z,56.88
2022-08-17T03:01:34.921Z,56.25
2022-08-17T03:04:01.945Z,56.00
2022-08-17T03:06:29.203Z,60.00
2022-08-17T03:08:56.137Z,63.15
2022-08-17T03:11:23.531Z,60.35
2022-08-17T03:13:51.045Z,68.32
2022-08-17T03:16:17.898Z,73.93
2022-08-17T03:18:44.794Z,73.70
2022-08-17T03:21:11.636Z,86.40
2022-08-17T03:23:42.145Z,85.97
2022-08-17T03:26:12.396Z,87.47
2022-08-17T03:28:42.680Z,82.30
2022-08-17T03:31:09.654Z,80.70
2022-08-17T03:33:36.497Z,74.60
2022-08-17T03:36:03.684Z,71.57
2022-08-17T03:38:38.926Z,76.70
2022-08-17T03:41:09.622Z,66.50
2022-08-17T03:43:36.527Z,74.45
2022-08-17T03:46:28.528Z,70.80
2022-08-17T03:49:19.561Z,69.10
2022-08-17T03:52:07.758Z,67.25
2022-08-17T03:54:53.382Z,60.47
2022-08-17T03:57:20.321Z,56.38
2022-08-17T03:59:47.663Z,59.58
2022-08-17T04:02:26.161Z,61.85
2022-08-17T04:04:53.822Z,53.87
2022-08-17T04:07:23.437Z,58.60
2022-08-17T04:09:50.412Z,56.20
2022-08-17T04:12:21.718Z,58.75
2022-08-17T04:14:53.124Z,56.25
2022-08-17T04:17:24.159Z,64.05
2022-08-17T04:19:51.460Z,59.22
2022-08-17T04:22:33.005Z,57.53
2022-08-17T04:25:14.736Z,62.70
2022-08-17T04:27:41.603Z,62.70
2022-08-17T04:30:09.310Z,68.35
2022-08-17T04:33:06.105Z,65.00
2022-08-17T04:35:41.164Z,64.63
2022-08-17T04:38:10.662Z,63.03
2022-08-17T04:40:56.622Z,66.43
2022-08-17T04:43:25.666Z,66.45
2022-08-17T04:45:59.453Z,68.28
2022-08-17T04:48:36.207Z,75.60
2022-08-17T04:51:08.046Z,72.57
2022-08-17T04:53:35.240Z,70.05
2022-08-17T04:56:02.562Z,67.65
2022-08-17T04:58:29.397Z,74.35
2022-08-17T05:00:56.306Z,72.57
2022-08-17T05:03:23.257Z,75.22
2022-08-17T05:05:50.141Z,79.07
2022-08-17T05:08:19.280Z,82.82
2022-08-17T05:10:47.186Z,79.38
2022-08-17T05:13:20.365Z,78.60
2022-08-17T05:15:50.065Z,75.50
2022-08-17T05:18:17.505Z,75.63
2022-08-17T05:20:45.532Z,68.20
2022-08-17T05:23:14.762Z,66.53
2022-08-17T05:28:10.763Z,63.53
2022-08-17T05:30:39.611Z,66.80
2022-08-17T05:33:08.711Z,71.28
2022-08-17T05:35:37.652Z,72.60
2022-08-17T05:38:05.260Z,76.93
2022-08-17T05:40:33.014Z,77.05
2022-08-17T05:43:09.433Z,80.15
2022-08-17T05:45:55.157Z,77.35
2022-08-17T05:48:39.072Z,80.97
2022-08-17T05:51:10.200Z,83.65
2022-08-17T05:53:56.030Z,81.97
2022-08-17T05:56:30.045Z,72.00
2022-08-17T05:59:21.649Z,77.22
2022-08-17T06:02:07.577Z,77.15
2022-08-17T06:04:46.773Z,70.80
2022-08-17T06:09:46.749Z,71.30
2022-08-17T06:12:19.781Z,73.65
2022-08-17T06:15:07.466Z,73.72
2022-08-17T06:17:35.108Z,71.38
2022-08-17T06:20:08.496Z,65.30
2022-08-17T06:22:38.745Z,63.60
2022-08-17T06:25:10.040Z,67.05
2022-08-17T06:27:47.889Z,58.25
2022-08-17T06:30:26.123Z,63.60
2022-08-17T06:32:55.895Z,65.65
2022-08-17T06:35:32.126Z,61.70
2022-08-17T06:38:21.826Z,66.90
2022-08-17T06:41:10.300Z,62.33
2022-08-17T06:43:40.214Z,58.63
2022-08-17T06:46:11.413Z,56.60
2022-08-17T06:48:46.872Z,59.55
2022-08-17T06:51:26.751Z,56.40
2022-08-17T06:54:05.298Z,50.60
2022-08-17T06:56:54.556Z,49.17
2022-08-17T06:59:26.267Z,50.63
2022-08-17T07:02:05.336Z,52.20
2022-08-17T07:04:35.916Z,49.38
2022-08-17T07:07:25.264Z,47.35
2022-08-17T07:09:54.075Z,43.30
2022-08-17T07:12:30.222Z,42.80
2022-08-17T07:15:04.440Z,37.25
2022-08-17T07:17:47.045Z,30.33
2022-08-17T07:20:17.733Z,32.88
2022-08-17T07:22:53.609Z,27.45
2022-08-17T07:25:27.590Z,28.83
2022-08-17T07:27:56.020Z,31.88
2022-08-17T07:30:26.507Z,27.77
2022-08-17T07:32:57.380Z,30.02
2022-08-17T07:35:37.852Z,32.05
2022-08-17T07:38:25.394Z,34.67
2022-08-17T07:41:02.410Z,31.75
2022-08-17T07:43:37.580Z,29.50
2022-08-17T07:46:25.927Z,28.75
2022-08-17T07:48:54.887Z,34.27
2022-08-17T07:51:40.940Z,34.28
2022-08-17T07:54:22.458Z,38.00
2022-08-17T07:56:54.536Z,34.70
2022-08-17T07:59:28.656Z,35.50
2022-08-17T08:02:06.000Z,31.60
2022-08-17T08:04:59.362Z,30.30
2022-08-17T08:07:30.346Z,30.48
2022-08-17T08:10:11.259Z,30.50
2022-08-17T08:12:40.480Z,28.55
2022-08-17T08:15:18.547Z,30.17
2022-08-17T08:18:05.799Z,24.17
2022-08-17T08:20:52.231Z,26.48
2022-08-17T08:23:39.616Z,28.80
2022-08-17T08:26:18.573Z,28.23
2022-08-17T08:29:05.135Z,28.67
2022-08-17T08:31:47.572Z,27.45
2022-08-17T08:34:44.429Z,28.65
2022-08-17T08:37:35.711Z,26.60
2022-08-17T08:40:24.642Z,27.25
2022-08-17T08:43:07.315Z,26.33
2022-08-17T08:45:50.074Z,24.45
2022-08-17T08:48:56.065Z,22.10
2022-08-17T08:51:29.172Z,22.38
2022-08-17T08:53:57.921Z,18.73
2022-08-17T08:56:28.779Z,20.98
2022-08-17T08:58:59.362Z,17.92
2022-08-17T09:01:38.167Z,19.83
2022-08-17T09:04:25.512Z,19.50
2022-08-17T09:07:05.249Z,18.25
2022-08-17T09:09:51.235Z,17.45
2022-08-17T09:12:26.184Z,19.65
2022-08-17T09:14:53.474Z,17.30
2022-08-17T09:17:22.762Z,19.25
2022-08-17T09:22:36.323Z,17.65
2022-08-17T09:25:03.633Z,19.10
2022-08-17T09:27:53.004Z,20.90
2022-08-17T09:30:20.418Z,17.38
2022-08-17T09:32:49.938Z,17.80
2022-08-17T09:35:17.264Z,18.27
2022-08-17T09:37:53.570Z,19.45
2022-08-17T09:40:23.937Z,18.80
2022-08-17T09:43:01.779Z,19.00
2022-08-17T09:45:35.307Z,21.23
2022-08-17T09:48:31.961Z,20.58
2022-08-17T09:51:04.546Z,24.90
2022-08-17T09:53:34.063Z,25.75
2022-08-17T09:56:04.253Z,29.95
2022-08-17T09:58:31.557Z,24.90
2022-08-17T10:01:03.754Z,30.52
2022-08-17T10:03:52.407Z,26.70
2022-08-17T10:06:23.334Z,27.67
2022-08-17T10:09:08.461Z,25.00
2022-08-17T10:11:57.516Z,30.13
2022-08-17T10:17:24.227Z,28.23
2022-08-17T10:20:06.840Z,30.80
2022-08-17T10:22:57.701Z,30.05
2022-08-17T10:26:00.034Z,28.40
2022-08-17T10:28:30.404Z,30.05
2022-08-17T10:34:10.541Z,31.38
2022-08-17T10:36:43.224Z,32.20
2022-08-17T10:39:23.297Z,28.73
2022-08-17T10:41:52.621Z,31.70
2022-08-17T10:44:39.247Z,28.77
2022-08-17T10:47:09.700Z,29.60
2022-08-17T10:49:38.727Z,30.67
2022-08-17T10:52:25.970Z,35.58
2022-08-17T10:54:58.092Z,30.23
2022-08-17T10:57:32.243Z,31.40
2022-08-17T11:00:00.568Z,30.60
2022-08-17T11:02:28.125Z,31.73
2022-08-17T11:05:01.173Z,29.88
2022-08-17T11:07:43.826Z,25.15
2022-08-17T11:10:11.524Z,25.20
2022-08-17T11:12:49.039Z,28.45
2022-08-17T11:15:22.256Z,24.73
2022-08-17T11:18:01.568Z,28.02
2022-08-17T11:20:47.167Z,24.65
2022-08-17T11:23:33.895Z,25.27
2022-08-17T11:26:04.098Z,25.55
2022-08-17T11:28:35.789Z,26.95
2022-08-17T11:31:09.304Z,25.98
2022-08-17T11:33:38.176Z,33.13
2022-08-17T11:36:25.957Z,30.33
2022-08-17T11:39:06.938Z,29.85
2022-08-17T11:41:39.618Z,29.27
2022-08-17T11:44:10.477Z,31.10
2022-08-17T11:47:31.821Z,29.20
2022-08-17T11:50:29.823Z,32.88
2022-08-17T11:52:57.149Z,29.55
2022-08-17T11:55:37.528Z,29.80
2022-08-17T11:58:25.736Z,27.30
2022-08-17T12:01:03.023Z,30.98
2022-08-17T12:03:33.529Z,31.48
2022-08-17T12:06:03.536Z,29.30
2022-08-17T12:08:33.584Z,28.83
2022-08-17T12:11:09.564Z,31.15
2022-08-17T12:13:43.124Z,30.48
2022-08-17T12:16:14.455Z,33.53
2022-08-17T12:18:49.154Z,31.63
2022-08-17T12:21:20.317Z,36.15
2022-08-17T12:23:58.154Z,36.25
2022-08-17T12:26:30.960Z,33.55
2022-08-17T12:29:01.059Z,37.35
2022-08-17T12:31:30.111Z,35.53
2022-08-17T12:33:57.622Z,36.60
2022-08-17T12:36:28.171Z,37.67
2022-08-17T12:39:14.182Z,38.70
2022-08-17T12:41:43.797Z,35.58
2022-08-17T12:44:21.904Z,37.65
2022-08-17T12:46:55.406Z,41.70
2022-08-17T12:49:26.393Z,37.78
2022-08-17T12:51:58.159Z,38.70
2022-08-17T12:54:40.924Z,36.90
2022-08-17T12:57:28.474Z,37.60
2022-08-17T12:59:58.920Z,36.63
2022-08-17T13:02:31.729Z,38.90
2022-08-17T13:05:00.876Z,36.88
2022-08-17T13:07:29.653Z,37.40
2022-08-17T13:09:56.907Z,36.22
2022-08-17T13:12:28.652Z,36.35
2022-08-17T13:14:57.525Z,35.13
2022-08-17T13:17:35.256Z,37.83
2022-08-17T13:20:04.686Z,36.70
2022-08-17T13:22:32.523Z,40.13
2022-08-17T13:25:07.374Z,34.95
2022-08-17T13:27:34.809Z,35.50
2022-08-17T13:30:03.977Z,34.55
2022-08-17T13:32:31.336Z,33.83
2022-08-17T13:35:14.104Z,35.17
2022-08-17T13:37:56.869Z,37.40
2022-08-17T13:40:24.077Z,35.38
2022-08-17T13:42:55.531Z,36.03
2022-08-17T13:45:36.847Z,37.28
2022-08-17T13:48:26.779Z,35.50
2022-08-17T13:50:56.960Z,33.78
2022-08-17T13:53:36.417Z,36.40
2022-08-17T13:56:38.373Z,36.50
2022-08-17T13:59:05.022Z,35.47
2022-08-17T14:01:34.907Z,34.75
2022-08-17T14:04:04.147Z,37.17
2022-08-17T14:09:21.149Z,33.10
2022-08-17T14:11:48.857Z,34.08
2022-08-17T14:14:16.477Z,35.45
2022-08-17T14:16:43.933Z,36.33
2022-08-17T14:19:12.661Z,33.10
2022-08-17T14:21:44.488Z,32.00
2022-08-17T14:24:16.968Z,32.40
2022-08-17T14:26:44.953Z,32.75
2022-08-17T14:29:15.513Z,32.67
2022-08-17T14:31:43.092Z,32.33
2022-08-17T14:34:20.842Z,31.90
2022-08-17T14:36:48.651Z,30.50
2022-08-17T14:39:16.474Z,28.58
2022-08-17T14:41:43.966Z,28.95
2022-08-17T14:44:13.075Z,32.20
2022-08-17T14:46:43.388Z,27.70
2022-08-17T14:49:11.920Z,28.65
2022-08-17T14:51:44.263Z,28.05
2022-08-17T14:54:32.978Z,26.52
2022-08-17T14:57:17.722Z,25.63
2022-08-17T14:59:48.867Z,25.85
2022-08-17T15:02:21.727Z,25.02
2022-08-17T15:05:05.395Z,25.60
2022-08-17T15:07:34.979Z,22.65
2022-08-17T15:10:02.902Z,23.00
2022-08-17T15:12:33.734Z,22.38
2022-08-17T15:15:02.007Z,24.25
2022-08-17T15:17:43.886Z,22.48
2022-08-17T15:20:20.700Z,22.70
2022-08-17T15:22:55.425Z,23.50
2022-08-17T15:25:23.671Z,25.92
2022-08-17T15:27:51.458Z,22.50
2022-08-17T15:30:18.911Z,23.50
2022-08-17T15:32:51.144Z,22.98
2022-08-17T15:35:27.383Z,25.90
2022-08-17T15:37:56.150Z,21.63
2022-08-17T15:40:23.488Z,25.70
2022-08-17T15:42:51.187Z,24.83
2022-08-17T15:45:22.454Z,23.95
2022-08-17T15:47:50.372Z,26.83
2022-08-17T15:50:17.740Z,25.00
2022-08-17T15:52:48.178Z,33.05
2022-08-17T15:55:16.601Z,24.63
2022-08-17T15:57:45.186Z,25.52
2022-08-17T16:00:12.563Z,25.02
2022-08-17T16:03:46.006Z,24.98
2022-08-17T16:05:28.529Z,24.50
2022-08-17T16:07:59.599Z,28.27
2022-08-17T16:10:35.228Z,27.63
2022-08-17T16:13:02.789Z,26.33
2022-08-17T16:15:31.491Z,29.33
2022-08-17T16:17:58.995Z,26.05
2022-08-17T16:20:26.048Z,27.67
2022-08-17T16:22:54.129Z,28.58
2022-08-17T16:25:38.837Z,28.67
2022-08-17T16:28:13.302Z,24.20
2022-08-17T16:30:41.221Z,27.25
2022-08-17T16:33:11.536Z,29.98
2022-08-17T16:35:38.647Z,30.42
2022-08-17T16:38:07.155Z,26.42
2022-08-17T16:40:35.890Z,28.02
2022-08-17T16:43:04.172Z,28.95
2022-08-17T16:45:40.113Z,27.15
2022-08-17T16:48:08.700Z,26.48
2022-08-17T16:50:36.264Z,28.70
2022-08-17T16:53:18.741Z,29.40
2022-08-17T16:55:47.125Z,31.55
2022-08-17T16:58:14.740Z,27.33
2022-08-17T17:00:44.247Z,30.67
2022-08-17T17:03:24.784Z,28.15
2022-08-17T17:06:18.772Z,29.58
2022-08-17T17:08:53.801Z,28.17
2022-08-17T17:11:34.088Z,31.55
2022-08-17T17:14:06.091Z,27.48
2022-08-17T17:16:57.662Z,31.08
2022-08-17T17:20:00.490Z,26.08
2022-08-17T17:22:37.556Z,26.90
2022-08-17T17:25:19.277Z,25.38
2022-08-17T17:28:14.123Z,24.08
2022-08-17T17:31:02.076Z,24.23
2022-08-17T17:33:40.406Z,26.13
2022-08-17T17:36:22.624Z,28.77
2022-08-17T17:38:53.882Z,25.55
2022-08-17T17:41:29.509Z,26.60
2022-08-17T17:44:03.107Z,24.35
2022-08-17T17:46:35.269Z,24.42
2022-08-17T17:49:02.225Z,25.83
2022-08-17T17:52:06.778Z,25.52
2022-08-17T17:54:52.748Z,22.42
2022-08-17T17:57:41.831Z,24.00
2022-08-17T18:03:03.247Z,24.10
2022-08-17T18:06:08.149Z,23.90
2022-08-17T18:08:59.538Z,24.67
2022-08-17T18:11:37.101Z,21.45
2022-08-17T18:14:19.161Z,22.95
2022-08-17T18:16:48.037Z,27.42
2022-08-17T18:19:20.738Z,25.60
2022-08-17T18:21:52.867Z,25.15
2022-08-17T18:24:37.952Z,25.63
2022-08-17T18:27:33.178Z,27.92
2022-08-17T18:30:22.421Z,25.25
2022-08-17T18:32:49.547Z,26.73
2022-08-17T18:35:19.516Z,26.80
2022-08-17T18:37:49.153Z,23.70
2022-08-17T18:40:19.530Z,24.88
2022-08-17T18:43:03.022Z,26.08
2022-08-17T18:46:02.006Z,26.42
2022-08-17T18:48:48.718Z,27.08
2022-08-17T18:51:45.855Z,24.95
2022-08-17T18:54:24.868Z,26.17
2022-08-17T18:56:59.497Z,26.50
2022-08-17T18:59:31.740Z,23.25
2022-08-17T19:02:21.599Z,21.38
2022-08-17T19:05:09.900Z,25.08
2022-08-17T19:07:45.040Z,21.38
2022-08-17T19:10:18.926Z,24.58
2022-08-17T19:12:48.902Z,20.52
2022-08-17T19:15:20.958Z,23.73
2022-08-17T19:18:06.801Z,24.80
2022-08-17T19:20:42.718Z,22.35
2022-08-17T19:23:12.966Z,22.50
2022-08-17T19:25:51.032Z,24.17
2022-08-17T19:28:25.172Z,19.65
2022-08-17T19:30:58.332Z,22.58
2022-08-17T19:33:27.234Z,20.02
2022-08-17T19:36:11.339Z,21.40
2022-08-17T19:38:50.558Z,23.25
2022-08-17T19:44:02.288Z,24.38
2022-08-17T19:47:02.123Z,24.65
2022-08-17T19:49:49.127Z,22.45
2022-08-17T19:52:29.484Z,22.35
2022-08-17T19:55:20.817Z,21.80
2022-08-17T19:57:47.845Z,24.33
2022-08-17T20:00:17.007Z,24.75
2022-08-17T20:03:16.201Z,24.25
2022-08-17T20:06:14.014Z,22.27
2022-08-17T20:08:59.038Z,24.33
2022-08-17T20:11:37.407Z,24.23
2022-08-17T20:14:14.954Z,25.93
2022-08-17T20:16:42.449Z,27.83
2022-08-17T20:19:48.667Z,24.73
2022-08-17T20:22:31.733Z,27.05
2022-08-17T20:25:30.618Z,27.52
2022-08-17T20:28:06.387Z,25.23
2022-08-17T20:30:39.634Z,27.15
2022-08-17T20:33:22.048Z,29.02
2022-08-17T20:36:03.000Z,25.30
2022-08-17T20:38:46.069Z,29.05
2022-08-17T20:41:25.193Z,28.40
2022-08-17T20:43:58.889Z,27.38
2022-08-17T20:46:40.726Z,28.15
2022-08-17T20:49:40.078Z,27.02
2022-08-17T20:52:16.628Z,25.27
2022-08-17T20:54:53.004Z,26.70
2022-08-17T20:57:32.071Z,29.55
2022-08-17T21:00:30.082Z,26.50
2022-08-17T21:03:50.567Z,27.23
2022-08-17T21:06:21.265Z,30.25
2022-08-17T21:08:58.964Z,24.10
2022-08-17T21:12:02.285Z,25.77
2022-08-17T21:14:18.448Z,25.10
2022-08-17T21:17:33.299Z,23.25
2022-08-17T21:20:23.563Z,22.33
2022-08-17T21:23:08.020Z,23.23
2022-08-17T21:25:40.763Z,24.30
2022-08-17T21:28:34.251Z,20.98
2022-08-17T21:31:08.527Z,23.30
2022-08-17T21:33:39.114Z,28.50
2022-08-17T21:36:12.076Z,23.30
2022-08-17T21:38:47.503Z,25.25
2022-08-17T21:41:27.356Z,21.70
2022-08-17T21:44:05.240Z,23.50
2022-08-17T21:46:37.592Z,22.85
2022-08-17T21:49:13.820Z,22.50
2022-08-17T21:51:54.115Z,23.30
2022-08-17T21:54:42.550Z,23.63
2022-08-17T21:57:17.516Z,26.25
2022-08-17T21:59:44.754Z,21.05
2022-08-17T22:02:22.054Z,23.08
2022-08-17T22:05:07.847Z,22.42
2022-08-17T22:07:42.916Z,20.20
2022-08-17T22:10:31.593Z,23.83
2022-08-17T22:13:23.171Z,23.95
2022-08-17T22:16:28.639Z,21.88
2022-08-17T22:18:58.800Z,20.17
2022-08-17T22:21:25.811Z,20.65
2022-08-17T22:24:24.638Z,22.02
2022-08-17T22:27:00.353Z,20.67
2022-08-17T22:29:59.999Z,20.40
2022-08-17T22:32:34.973Z,21.50
2022-08-17T22:35:32.777Z,20.90
2022-08-17T22:38:18.577Z,20.00
2022-08-17T22:40:50.969Z,18.50
2022-08-17T22:43:24.242Z,23.30
2022-08-17T22:45:56.837Z,20.85
2022-08-17T22:48:27.327Z,22.30
2022-08-17T22:51:17.628Z,23.35
2022-08-17T22:54:31.735Z,20.42
2022-08-17T22:57:20.709Z,22.35
2022-08-17T22:59:50.932Z,23.48
2022-08-17T23:02:26.067Z,24.20
2022-08-17T23:05:10.836Z,25.50
2022-08-17T23:07:37.642Z,28.83
2022-08-17T23:10:08.165Z,24.42
2022-08-17T23:12:39.678Z,23.33
2022-08-17T23:15:15.555Z,24.42
2022-08-17T23:17:42.695Z,24.38
2022-08-17T23:30:40.006Z,25.40
2022-08-17T23:33:54.683Z,23.38
2022-08-17T23:36:23.626Z,21.33
2022-08-17T23:38:50.479Z,22.48
2022-08-17T23:41:21.408Z,22.48
2022-08-17T23:43:51.442Z,21.13
2022-08-17T23:46:24.485Z,23.10
2022-08-17T23:48:54.169Z,22.70
2022-08-17T23:51:25.483Z,22.30
2022-08-17T23:54:07.214Z,19.88
2022-08-17T23:56:38.279Z,24.38
2022-08-17T23:59:07.318Z,21.92
